sensor_id;sensor_type;location;lat;lon;timestamp;temperature;humidity
9410;DHT22;4744;52.576;13.568;2022-12-18T00:01:05;-4.90;1.00
9410;DHT22;4744;52.576;13.568;2022-12-18T00:03:32;-4.90;1.00
9410;DHT22;4744;52.576;13.568;2022-12-18T00:06:00;-4.70;1.00
9410;DHT22;4744;52.576;13.568;2022-12-18T00:08:27;-4.70;1.00
9410;DHT22;4744;52.576;13.568;2022-12-18T00:10:54;-4.60;1.00
9410;DHT22;4744;52.576;13.568;2022-12-18T00:13:21;-4.60;1.00
9410;DHT22;4744;52.576;13.568;2022-12-18T00:15:52;-4.70;1.00
9410;DHT22;4744;52.576;13.568;2022-12-18T00:18:19;-4.80;1.00
9410;DHT22;4744;52.576;13.568;2022-12-18T00:20:46;-4.80;1.00
9410;DHT22;4744;52.576;13.568;2022-12-18T00:23:13;-4.80;1.00
9410;DHT22;4744;52.576;13.568;2022-12-18T00:25:40;-4.80;1.00
9410;DHT22;4744;52.576;13.568;2022-12-18T00:28:07;-4.80;1.00
9410;DHT22;4744;52.576;13.568;2022-12-18T00:30:34;-4.80;1.00
9410;DHT22;4744;52.576;13.568;2022-12-18T00:33:02;-4.80;1.00
9410;DHT22;4744;52.576;13.568;2022-12-18T00:35:29;-4.80;1.00
9410;DHT22;4744;52.576;13.568;2022-12-18T00:37:56;-4.80;1.00
9410;DHT22;4744;52.576;13.568;2022-12-18T00:40:23;-4.90;1.00
9410;DHT22;4744;52.576;13.568;2022-12-18T00:42:50;-5.00;1.00
9410;DHT22;4744;52.576;13.568;2022-12-18T00:45:25;-5.10;1.00
9410;DHT22;4744;52.576;13.568;2022-12-18T00:47:53;-5.10;1.00
9410;DHT22;4744;52.576;13.568;2022-12-18T00:50:22;-5.20;1.00
9410;DHT22;4744;52.576;13.568;2022-12-18T00:52:50;-5.30;1.00
9410;DHT22;4744;52.576;13.568;2022-12-18T00:55:17;-5.30;1.00
9410;DHT22;4744;52.576;13.568;2022-12-18T00:57:44;-5.30;1.00
9410;DHT22;4744;52.576;13.568;2022-12-18T01:00:14;-5.30;1.00
9410;DHT22;4744;52.576;13.568;2022-12-18T01:02:42;-5.30;1.00
9410;DHT22;4744;52.576;13.568;2022-12-18T01:05:09;-5.30;1.00
9410;DHT22;4744;52.576;13.568;2022-12-18T01:07:38;-5.30;1.00
9410;DHT22;4744;52.576;13.568;2022-12-18T01:10:06;-5.30;1.00
9410;DHT22;4744;52.576;13.568;2022-12-18T01:12:34;-5.30;1.00
9410;DHT22;4744;52.576;13.568;2022-12-18T01:15:00;-5.30;1.00
9410;DHT22;4744;52.576;13.568;2022-12-18T01:17:27;-5.20;1.00
9410;DHT22;4744;52.576;13.568;2022-12-18T01:19:54;-5.10;1.00
9410;DHT22;4744;52.576;13.568;2022-12-18T01:22:21;-5.10;1.00
9410;DHT22;4744;52.576;13.568;2022-12-18T01:24:49;-5.10;1.00
9410;DHT22;4744;52.576;13.568;2022-12-18T01:27:16;-5.10;1.00
9410;DHT22;4744;52.576;13.568;2022-12-18T01:29:43;-5.10;1.00
9410;DHT22;4744;52.576;13.568;2022-12-18T01:32:10;-5.20;1.00
9410;DHT22;4744;52.576;13.568;2022-12-18T01:34:37;-5.30;1.00
9410;DHT22;4744;52.576;13.568;2022-12-18T01:37:04;-5.30;1.00
9410;DHT22;4744;52.576;13.568;2022-12-18T01:39:32;-5.40;1.00
9410;DHT22;4744;52.576;13.568;2022-12-18T01:42:08;-5.40;1.00
9410;DHT22;4744;52.576;13.568;2022-12-18T01:44:58;-5.30;1.00
9410;DHT22;4744;52.576;13.568;2022-12-18T01:47:29;-5.20;1.00
9410;DHT22;4744;52.576;13.568;2022-12-18T01:49:59;-5.30;1.00
9410;DHT22;4744;52.576;13.568;2022-12-18T01:52:30;-5.30;1.00
9410;DHT22;4744;52.576;13.568;2022-12-18T01:54:57;-5.30;1.00
9410;DHT22;4744;52.576;13.568;2022-12-18T01:57:27;-5.30;1.00
9410;DHT22;4744;52.576;13.568;2022-12-18T01:59:59;-5.30;1.00
9410;DHT22;4744;52.576;13.568;2022-12-18T02:02:28;-5.30;1.00
9410;DHT22;4744;52.576;13.568;2022-12-18T02:04:55;-5.40;1.00
9410;DHT22;4744;52.576;13.568;2022-12-18T02:07:29;-5.40;1.00
9410;DHT22;4744;52.576;13.568;2022-12-18T02:10:03;-5.30;1.00
9410;DHT22;4744;52.576;13.568;2022-12-18T02:12:38;-5.30;1.00
9410;DHT22;4744;52.576;13.568;2022-12-18T02:15:13;-5.30;1.00
9410;DHT22;4744;52.576;13.568;2022-12-18T02:17:46;-5.30;1.00
9410;DHT22;4744;52.576;13.568;2022-12-18T02:20:19;-5.40;1.00
9410;DHT22;4744;52.576;13.568;2022-12-18T02:23:01;-5.40;1.00
9410;DHT22;4744;52.576;13.568;2022-12-18T02:28:37;-5.40;1.00
9410;DHT22;4744;52.576;13.568;2022-12-18T02:31:10;-5.50;1.00
9410;DHT22;4744;52.576;13.568;2022-12-18T02:33:39;-5.40;1.00
9410;DHT22;4744;52.576;13.568;2022-12-18T02:36:08;-5.40;1.00
9410;DHT22;4744;52.576;13.568;2022-12-18T02:38:36;-5.40;1.00
9410;DHT22;4744;52.576;13.568;2022-12-18T02:41:04;-5.30;1.00
9410;DHT22;4744;52.576;13.568;2022-12-18T02:43:32;-5.40;1.00
9410;DHT22;4744;52.576;13.568;2022-12-18T02:46:23;-5.40;1.00
9410;DHT22;4744;52.576;13.568;2022-12-18T02:48:54;-5.50;1.00
9410;DHT22;4744;52.576;13.568;2022-12-18T02:51:30;-5.50;1.00
9410;DHT22;4744;52.576;13.568;2022-12-18T02:54:05;-5.40;1.00
9410;DHT22;4744;52.576;13.568;2022-12-18T02:56:36;-5.40;1.00
9410;DHT22;4744;52.576;13.568;2022-12-18T02:59:08;-5.40;1.00
9410;DHT22;4744;52.576;13.568;2022-12-18T03:01:47;-5.40;1.00
9410;DHT22;4744;52.576;13.568;2022-12-18T03:04:20;-5.40;1.00
9410;DHT22;4744;52.576;13.568;2022-12-18T03:06:50;-5.30;1.00
9410;DHT22;4744;52.576;13.568;2022-12-18T03:09:22;-5.30;1.00
9410;DHT22;4744;52.576;13.568;2022-12-18T03:11:54;-5.40;1.00
9410;DHT22;4744;52.576;13.568;2022-12-18T03:14:40;-5.40;1.00
9410;DHT22;4744;52.576;13.568;2022-12-18T03:17:15;-5.40;1.00
9410;DHT22;4744;52.576;13.568;2022-12-18T03:19:43;-5.30;1.00
9410;DHT22;4744;52.576;13.568;2022-12-18T03:22:13;-5.40;1.00
9410;DHT22;4744;52.576;13.568;2022-12-18T03:24:42;-5.40;1.00
9410;DHT22;4744;52.576;13.568;2022-12-18T03:27:13;-5.50;1.00
9410;DHT22;4744;52.576;13.568;2022-12-18T03:29:45;-5.50;1.00
9410;DHT22;4744;52.576;13.568;2022-12-18T03:32:16;-5.60;1.00
9410;DHT22;4744;52.576;13.568;2022-12-18T03:34:49;-5.70;1.00
9410;DHT22;4744;52.576;13.568;2022-12-18T03:37:17;-5.70;1.00
9410;DHT22;4744;52.576;13.568;2022-12-18T03:39:44;-5.70;1.00
9410;DHT22;4744;52.576;13.568;2022-12-18T03:42:15;-5.70;1.00
9410;DHT22;4744;52.576;13.568;2022-12-18T03:44:50;-5.80;1.00
9410;DHT22;4744;52.576;13.568;2022-12-18T03:47:26;-5.80;1.00
9410;DHT22;4744;52.576;13.568;2022-12-18T03:49:57;-5.80;1.00
9410;DHT22;4744;52.576;13.568;2022-12-18T03:52:27;-5.70;1.00
9410;DHT22;4744;52.576;13.568;2022-12-18T03:54:57;-5.70;1.00
9410;DHT22;4744;52.576;13.568;2022-12-18T03:57:26;-5.70;1.00
9410;DHT22;4744;52.576;13.568;2022-12-18T03:59:58;-5.60;1.00
9410;DHT22;4744;52.576;13.568;2022-12-18T04:02:29;-5.50;1.00
9410;DHT22;4744;52.576;13.568;2022-12-18T04:05:00;-5.60;1.00
9410;DHT22;4744;52.576;13.568;2022-12-18T04:07:28;-5.70;1.00
9410;DHT22;4744;52.576;13.568;2022-12-18T04:09:56;-5.70;1.00
9410;DHT22;4744;52.576;13.568;2022-12-18T04:12:25;-5.70;1.00
9410;DHT22;4744;52.576;13.568;2022-12-18T04:14:52;-5.60;1.00
9410;DHT22;4744;52.576;13.568;2022-12-18T04:17:20;-5.60;1.00
9410;DHT22;4744;52.576;13.568;2022-12-18T04:19:48;-5.70;1.00
9410;DHT22;4744;52.576;13.568;2022-12-18T04:22:15;-5.70;1.00
9410;DHT22;4744;52.576;13.568;2022-12-18T04:24:42;-5.70;1.00
9410;DHT22;4744;52.576;13.568;2022-12-18T04:27:09;-5.70;1.00
9410;DHT22;4744;52.576;13.568;2022-12-18T04:29:36;-5.80;1.00
9410;DHT22;4744;52.576;13.568;2022-12-18T04:32:03;-5.90;1.00
9410;DHT22;4744;52.576;13.568;2022-12-18T04:34:30;-6.00;1.00
9410;DHT22;4744;52.576;13.568;2022-12-18T04:36:58;-6.00;1.00
9410;DHT22;4744;52.576;13.568;2022-12-18T04:39:25;-6.00;1.00
9410;DHT22;4744;52.576;13.568;2022-12-18T04:41:52;-6.10;1.00
9410;DHT22;4744;52.576;13.568;2022-12-18T04:44:19;-6.10;1.00
9410;DHT22;4744;52.576;13.568;2022-12-18T04:46:46;-6.10;1.00
9410;DHT22;4744;52.576;13.568;2022-12-18T04:49:13;-6.10;1.00
9410;DHT22;4744;52.576;13.568;2022-12-18T04:51:40;-6.00;1.00
9410;DHT22;4744;52.576;13.568;2022-12-18T04:54:08;-6.00;1.00
9410;DHT22;4744;52.576;13.568;2022-12-18T04:56:35;-5.90;1.00
9410;DHT22;4744;52.576;13.568;2022-12-18T04:59:02;-5.90;1.00
9410;DHT22;4744;52.576;13.568;2022-12-18T05:01:28;-5.90;1.00
9410;DHT22;4744;52.576;13.568;2022-12-18T05:03:55;-5.80;1.00
9410;DHT22;4744;52.576;13.568;2022-12-18T05:06:22;-5.80;1.00
9410;DHT22;4744;52.576;13.568;2022-12-18T05:08:49;-5.80;1.00
9410;DHT22;4744;52.576;13.568;2022-12-18T05:11:18;-5.80;1.00
9410;DHT22;4744;52.576;13.568;2022-12-18T05:13:45;-5.90;1.00
9410;DHT22;4744;52.576;13.568;2022-12-18T05:16:13;-6.00;1.00
9410;DHT22;4744;52.576;13.568;2022-12-18T05:18:40;-5.90;1.00
9410;DHT22;4744;52.576;13.568;2022-12-18T05:21:07;-6.00;1.00
9410;DHT22;4744;52.576;13.568;2022-12-18T05:23:34;-6.00;1.00
9410;DHT22;4744;52.576;13.568;2022-12-18T05:26:03;-6.00;1.00
9410;DHT22;4744;52.576;13.568;2022-12-18T05:28:34;-6.10;1.00
9410;DHT22;4744;52.576;13.568;2022-12-18T05:31:02;-6.10;1.00
9410;DHT22;4744;52.576;13.568;2022-12-18T05:33:32;-6.10;1.00
9410;DHT22;4744;52.576;13.568;2022-12-18T05:36:04;-6.10;1.00
9410;DHT22;4744;52.576;13.568;2022-12-18T05:38:33;-6.00;1.00
9410;DHT22;4744;52.576;13.568;2022-12-18T05:41:01;-6.10;1.00
9410;DHT22;4744;52.576;13.568;2022-12-18T05:43:29;-6.10;1.00
9410;DHT22;4744;52.576;13.568;2022-12-18T05:45:57;-6.10;1.00
9410;DHT22;4744;52.576;13.568;2022-12-18T05:48:24;-6.10;1.00
9410;DHT22;4744;52.576;13.568;2022-12-18T05:50:51;-6.20;1.00
9410;DHT22;4744;52.576;13.568;2022-12-18T05:53:19;-6.20;1.00
9410;DHT22;4744;52.576;13.568;2022-12-18T05:55:47;-6.20;1.00
9410;DHT22;4744;52.576;13.568;2022-12-18T05:58:14;-6.10;1.00
9410;DHT22;4744;52.576;13.568;2022-12-18T06:00:44;-6.10;1.00
9410;DHT22;4744;52.576;13.568;2022-12-18T06:03:13;-6.10;1.00
9410;DHT22;4744;52.576;13.568;2022-12-18T06:05:41;-6.10;1.00
9410;DHT22;4744;52.576;13.568;2022-12-18T06:08:08;-6.10;1.00
9410;DHT22;4744;52.576;13.568;2022-12-18T06:10:36;-6.20;1.00
9410;DHT22;4744;52.576;13.568;2022-12-18T06:13:03;-6.20;1.00
9410;DHT22;4744;52.576;13.568;2022-12-18T06:15:30;-6.10;1.00
9410;DHT22;4744;52.576;13.568;2022-12-18T06:17:57;-6.10;1.00
9410;DHT22;4744;52.576;13.568;2022-12-18T06:20:25;-6.10;1.00
9410;DHT22;4744;52.576;13.568;2022-12-18T06:22:52;-6.10;1.00
9410;DHT22;4744;52.576;13.568;2022-12-18T06:25:19;-6.10;1.00
9410;DHT22;4744;52.576;13.568;2022-12-18T06:27:47;-6.20;1.00
9410;DHT22;4744;52.576;13.568;2022-12-18T06:30:14;-6.20;1.00
9410;DHT22;4744;52.576;13.568;2022-12-18T06:32:41;-6.10;1.00
9410;DHT22;4744;52.576;13.568;2022-12-18T06:35:08;-6.00;1.00
9410;DHT22;4744;52.576;13.568;2022-12-18T06:37:37;-5.90;1.00
9410;DHT22;4744;52.576;13.568;2022-12-18T06:40:05;-5.90;1.00
9410;DHT22;4744;52.576;13.568;2022-12-18T06:42:32;-6.00;1.00
9410;DHT22;4744;52.576;13.568;2022-12-18T06:44:59;-6.00;1.00
9410;DHT22;4744;52.576;13.568;2022-12-18T06:47:26;-6.10;1.00
9410;DHT22;4744;52.576;13.568;2022-12-18T06:49:52;-6.10;1.00
9410;DHT22;4744;52.576;13.568;2022-12-18T06:52:19;-6.00;1.00
9410;DHT22;4744;52.576;13.568;2022-12-18T06:54:47;-6.00;1.00
9410;DHT22;4744;52.576;13.568;2022-12-18T06:57:14;-6.00;1.00
9410;DHT22;4744;52.576;13.568;2022-12-18T06:59:41;-6.10;1.00
9410;DHT22;4744;52.576;13.568;2022-12-18T07:02:11;-6.00;1.00
9410;DHT22;4744;52.576;13.568;2022-12-18T07:04:38;-5.90;1.00
9410;DHT22;4744;52.576;13.568;2022-12-18T07:07:05;-5.90;1.00
9410;DHT22;4744;52.576;13.568;2022-12-18T07:09:31;-5.90;1.00
9410;DHT22;4744;52.576;13.568;2022-12-18T07:12:00;-5.90;1.00
9410;DHT22;4744;52.576;13.568;2022-12-18T07:14:27;-5.90;1.00
9410;DHT22;4744;52.576;13.568;2022-12-18T07:16:53;-5.80;1.00
9410;DHT22;4744;52.576;13.568;2022-12-18T07:19:23;-5.90;1.00
9410;DHT22;4744;52.576;13.568;2022-12-18T07:21:50;-5.80;1.00
9410;DHT22;4744;52.576;13.568;2022-12-18T07:24:17;-5.90;1.00
9410;DHT22;4744;52.576;13.568;2022-12-18T07:26:45;-5.80;1.00
9410;DHT22;4744;52.576;13.568;2022-12-18T07:29:14;-5.80;1.00
9410;DHT22;4744;52.576;13.568;2022-12-18T07:31:40;-5.80;1.00
9410;DHT22;4744;52.576;13.568;2022-12-18T07:34:10;-5.80;1.00
9410;DHT22;4744;52.576;13.568;2022-12-18T07:36:38;-5.70;1.00
9410;DHT22;4744;52.576;13.568;2022-12-18T07:39:05;-5.70;1.00
9410;DHT22;4744;52.576;13.568;2022-12-18T07:41:31;-5.70;1.00
9410;DHT22;4744;52.576;13.568;2022-12-18T07:43:58;-5.80;1.00
9410;DHT22;4744;52.576;13.568;2022-12-18T07:46:27;-5.80;1.00
9410;DHT22;4744;52.576;13.568;2022-12-18T07:48:53;-5.80;1.00
9410;DHT22;4744;52.576;13.568;2022-12-18T07:51:20;-5.80;1.00
9410;DHT22;4744;52.576;13.568;2022-12-18T07:53:47;-5.80;1.00
9410;DHT22;4744;52.576;13.568;2022-12-18T07:56:14;-5.90;1.00
9410;DHT22;4744;52.576;13.568;2022-12-18T07:58:41;-5.90;1.00
9410;DHT22;4744;52.576;13.568;2022-12-18T08:01:11;-5.90;1.00
9410;DHT22;4744;52.576;13.568;2022-12-18T08:03:40;-5.90;1.00
9410;DHT22;4744;52.576;13.568;2022-12-18T08:06:08;-5.80;1.00
9410;DHT22;4744;52.576;13.568;2022-12-18T08:08:36;-5.80;1.00
9410;DHT22;4744;52.576;13.568;2022-12-18T08:11:03;-5.90;1.00
9410;DHT22;4744;52.576;13.568;2022-12-18T08:13:30;-5.80;1.00
9410;DHT22;4744;52.576;13.568;2022-12-18T08:15:57;-5.80;1.00
9410;DHT22;4744;52.576;13.568;2022-12-18T08:18:24;-5.80;1.00
9410;DHT22;4744;52.576;13.568;2022-12-18T08:20:53;-5.80;1.00
9410;DHT22;4744;52.576;13.568;2022-12-18T08:23:20;-5.70;1.00
9410;DHT22;4744;52.576;13.568;2022-12-18T08:25:47;-5.80;1.00
9410;DHT22;4744;52.576;13.568;2022-12-18T08:28:18;-5.70;1.00
9410;DHT22;4744;52.576;13.568;2022-12-18T08:30:45;-5.70;1.00
9410;DHT22;4744;52.576;13.568;2022-12-18T08:33:12;-5.70;1.00
9410;DHT22;4744;52.576;13.568;2022-12-18T08:35:39;-5.60;1.00
9410;DHT22;4744;52.576;13.568;2022-12-18T08:38:07;-5.60;1.00
9410;DHT22;4744;52.576;13.568;2022-12-18T08:40:34;-5.50;1.00
9410;DHT22;4744;52.576;13.568;2022-12-18T08:43:01;-5.50;1.00
9410;DHT22;4744;52.576;13.568;2022-12-18T08:45:53;-5.50;1.00
9410;DHT22;4744;52.576;13.568;2022-12-18T08:48:21;-5.40;1.00
9410;DHT22;4744;52.576;13.568;2022-12-18T08:50:54;-5.40;1.00
9410;DHT22;4744;52.576;13.568;2022-12-18T08:53:25;-5.30;1.00
9410;DHT22;4744;52.576;13.568;2022-12-18T08:55:52;-5.30;1.00
9410;DHT22;4744;52.576;13.568;2022-12-18T08:58:19;-5.30;1.00
9410;DHT22;4744;52.576;13.568;2022-12-18T09:00:46;-5.30;1.00
9410;DHT22;4744;52.576;13.568;2022-12-18T09:03:14;-5.40;1.00
9410;DHT22;4744;52.576;13.568;2022-12-18T09:05:41;-5.40;1.00
9410;DHT22;4744;52.576;13.568;2022-12-18T09:08:08;-5.20;1.00
9410;DHT22;4744;52.576;13.568;2022-12-18T09:10:43;-5.20;1.00
9410;DHT22;4744;52.576;13.568;2022-12-18T09:13:10;-5.20;1.00
9410;DHT22;4744;52.576;13.568;2022-12-18T09:15:40;-5.20;1.00
9410;DHT22;4744;52.576;13.568;2022-12-18T09:18:08;-5.10;1.00
9410;DHT22;4744;52.576;13.568;2022-12-18T09:20:35;-5.00;1.00
9410;DHT22;4744;52.576;13.568;2022-12-18T09:23:02;-5.00;1.00
9410;DHT22;4744;52.576;13.568;2022-12-18T09:25:29;-5.00;1.00
9410;DHT22;4744;52.576;13.568;2022-12-18T09:27:59;-5.00;1.00
9410;DHT22;4744;52.576;13.568;2022-12-18T09:30:27;-5.10;1.00
9410;DHT22;4744;52.576;13.568;2022-12-18T09:32:54;-5.10;1.00
9410;DHT22;4744;52.576;13.568;2022-12-18T09:35:21;-5.10;1.00
9410;DHT22;4744;52.576;13.568;2022-12-18T09:37:48;-5.00;1.00
9410;DHT22;4744;52.576;13.568;2022-12-18T09:40:16;-4.90;1.00
9410;DHT22;4744;52.576;13.568;2022-12-18T09:42:47;-4.90;1.00
9410;DHT22;4744;52.576;13.568;2022-12-18T09:45:17;-4.90;1.00
9410;DHT22;4744;52.576;13.568;2022-12-18T09:47:45;-4.90;1.00
9410;DHT22;4744;52.576;13.568;2022-12-18T09:50:22;-4.80;1.00
9410;DHT22;4744;52.576;13.568;2022-12-18T09:52:52;-4.80;1.00
9410;DHT22;4744;52.576;13.568;2022-12-18T09:55:24;-4.70;1.00
9410;DHT22;4744;52.576;13.568;2022-12-18T09:57:55;-4.60;1.00
9410;DHT22;4744;52.576;13.568;2022-12-18T10:00:25;-4.50;1.00
9410;DHT22;4744;52.576;13.568;2022-12-18T10:02:55;-4.50;1.00
9410;DHT22;4744;52.576;13.568;2022-12-18T10:05:35;-4.50;1.00
9410;DHT22;4744;52.576;13.568;2022-12-18T10:08:09;-4.40;1.00
9410;DHT22;4744;52.576;13.568;2022-12-18T10:10:41;-4.40;1.00
9410;DHT22;4744;52.576;13.568;2022-12-18T10:13:22;-4.50;1.00
9410;DHT22;4744;52.576;13.568;2022-12-18T10:16:03;-4.40;1.00
9410;DHT22;4744;52.576;13.568;2022-12-18T10:21:31;-4.30;1.00
9410;DHT22;4744;52.576;13.568;2022-12-18T10:24:03;-4.40;1.00
9410;DHT22;4744;52.576;13.568;2022-12-18T10:26:34;-4.40;1.00
9410;DHT22;4744;52.576;13.568;2022-12-18T10:29:04;-4.30;1.00
9410;DHT22;4744;52.576;13.568;2022-12-18T10:31:35;-4.20;1.00
9410;DHT22;4744;52.576;13.568;2022-12-18T10:34:02;-4.20;1.00
9410;DHT22;4744;52.576;13.568;2022-12-18T10:36:29;-4.20;1.00
9410;DHT22;4744;52.576;13.568;2022-12-18T10:39:14;-4.20;1.00
9410;DHT22;4744;52.576;13.568;2022-12-18T10:41:41;-4.10;1.00
9410;DHT22;4744;52.576;13.568;2022-12-18T10:44:19;-4.10;1.00
9410;DHT22;4744;52.576;13.568;2022-12-18T10:46:49;-4.00;1.00
9410;DHT22;4744;52.576;13.568;2022-12-18T10:49:24;-4.00;1.00
9410;DHT22;4744;52.576;13.568;2022-12-18T10:52:05;-4.10;1.00
9410;DHT22;4744;52.576;13.568;2022-12-18T10:54:34;-4.10;1.00
9410;DHT22;4744;52.576;13.568;2022-12-18T10:57:15;-4.00;1.00
9410;DHT22;4744;52.576;13.568;2022-12-18T10:59:51;-4.10;1.00
9410;DHT22;4744;52.576;13.568;2022-12-18T11:02:28;-4.00;1.00
9410;DHT22;4744;52.576;13.568;2022-12-18T11:04:58;-4.00;1.00
9410;DHT22;4744;52.576;13.568;2022-12-18T11:07:25;-4.00;1.00
9410;DHT22;4744;52.576;13.568;2022-12-18T11:10:16;-4.00;1.00
9410;DHT22;4744;52.576;13.568;2022-12-18T11:12:44;-4.00;1.00
9410;DHT22;4744;52.576;13.568;2022-12-18T11:15:15;-3.90;1.00
9410;DHT22;4744;52.576;13.568;2022-12-18T11:17:47;-3.80;1.00
9410;DHT22;4744;52.576;13.568;2022-12-18T11:20:23;-3.80;1.00
9410;DHT22;4744;52.576;13.568;2022-12-18T11:22:55;-3.70;1.00
9410;DHT22;4744;52.576;13.568;2022-12-18T11:25:23;-3.80;1.00
9410;DHT22;4744;52.576;13.568;2022-12-18T11:27:52;-3.70;1.00
9410;DHT22;4744;52.576;13.568;2022-12-18T11:30:24;-3.70;1.00
9410;DHT22;4744;52.576;13.568;2022-12-18T11:32:55;-3.70;1.00
9410;DHT22;4744;52.576;13.568;2022-12-18T11:35:34;-3.70;1.00
9410;DHT22;4744;52.576;13.568;2022-12-18T11:38:06;-3.70;1.00
9410;DHT22;4744;52.576;13.568;2022-12-18T11:40:36;-3.70;1.00
9410;DHT22;4744;52.576;13.568;2022-12-18T11:43:09;-3.80;1.00
9410;DHT22;4744;52.576;13.568;2022-12-18T11:45:42;-3.80;1.00
9410;DHT22;4744;52.576;13.568;2022-12-18T11:48:17;-3.80;1.00
9410;DHT22;4744;52.576;13.568;2022-12-18T11:50:49;-3.90;1.00
9410;DHT22;4744;52.576;13.568;2022-12-18T11:53:17;-3.90;1.00
9410;DHT22;4744;52.576;13.568;2022-12-18T11:55:53;-3.90;1.00
9410;DHT22;4744;52.576;13.568;2022-12-18T11:58:36;-3.90;1.00
9410;DHT22;4744;52.576;13.568;2022-12-18T12:01:13;-3.90;1.00
9410;DHT22;4744;52.576;13.568;2022-12-18T12:06:52;-3.90;1.00
9410;DHT22;4744;52.576;13.568;2022-12-18T12:09:29;-3.80;1.00
9410;DHT22;4744;52.576;13.568;2022-12-18T12:12:10;-3.80;1.00
9410;DHT22;4744;52.576;13.568;2022-12-18T12:14:48;-3.80;1.00
9410;DHT22;4744;52.576;13.568;2022-12-18T12:17:25;-3.90;1.00
9410;DHT22;4744;52.576;13.568;2022-12-18T12:20:02;-3.90;1.00
9410;DHT22;4744;52.576;13.568;2022-12-18T12:22:37;-3.90;1.00
9410;DHT22;4744;52.576;13.568;2022-12-18T12:25:19;-3.90;1.00
9410;DHT22;4744;52.576;13.568;2022-12-18T12:27:56;-3.90;1.00
9410;DHT22;4744;52.576;13.568;2022-12-18T12:30:32;-4.00;1.00
9410;DHT22;4744;52.576;13.568;2022-12-18T12:33:12;-4.00;1.00
9410;DHT22;4744;52.576;13.568;2022-12-18T12:35:49;-3.90;1.00
9410;DHT22;4744;52.576;13.568;2022-12-18T12:38:22;-3.90;1.00
9410;DHT22;4744;52.576;13.568;2022-12-18T12:40:54;-4.00;1.00
9410;DHT22;4744;52.576;13.568;2022-12-18T12:43:31;-4.00;1.00
9410;DHT22;4744;52.576;13.568;2022-12-18T12:46:04;-3.90;1.00
9410;DHT22;4744;52.576;13.568;2022-12-18T12:48:39;-3.90;1.00
9410;DHT22;4744;52.576;13.568;2022-12-18T12:51:12;-3.90;1.00
9410;DHT22;4744;52.576;13.568;2022-12-18T12:53:40;-3.90;1.00
9410;DHT22;4744;52.576;13.568;2022-12-18T12:56:11;-3.90;1.00
9410;DHT22;4744;52.576;13.568;2022-12-18T12:58:47;-3.90;1.00
9410;DHT22;4744;52.576;13.568;2022-12-18T13:01:23;-3.90;1.00
9410;DHT22;4744;52.576;13.568;2022-12-18T13:04:02;-3.90;1.00
9410;DHT22;4744;52.576;13.568;2022-12-18T13:06:42;-3.80;1.00
9410;DHT22;4744;52.576;13.568;2022-12-18T13:09:10;-3.90;1.00
9410;DHT22;4744;52.576;13.568;2022-12-18T13:11:39;-3.80;1.00
9410;DHT22;4744;52.576;13.568;2022-12-18T13:14:29;-3.80;1.00
9410;DHT22;4744;52.576;13.568;2022-12-18T13:20:14;-3.80;1.00
9410;DHT22;4744;52.576;13.568;2022-12-18T13:22:45;-3.80;1.00
9410;DHT22;4744;52.576;13.568;2022-12-18T13:25:33;-3.80;1.00
9410;DHT22;4744;52.576;13.568;2022-12-18T13:28:04;-3.70;1.00
9410;DHT22;4744;52.576;13.568;2022-12-18T13:30:52;-3.80;1.00
9410;DHT22;4744;52.576;13.568;2022-12-18T13:33:49;-3.80;1.00
9410;DHT22;4744;52.576;13.568;2022-12-18T13:36:30;-3.70;1.00
9410;DHT22;4744;52.576;13.568;2022-12-18T13:39:22;-3.70;1.00
9410;DHT22;4744;52.576;13.568;2022-12-18T13:41:51;-3.70;1.00
9410;DHT22;4744;52.576;13.568;2022-12-18T13:44:30;-3.60;1.00
9410;DHT22;4744;52.576;13.568;2022-12-18T13:46:58;-3.60;1.00
9410;DHT22;4744;52.576;13.568;2022-12-18T13:49:30;-3.60;1.00
9410;DHT22;4744;52.576;13.568;2022-12-18T13:51:59;-3.50;1.00
9410;DHT22;4744;52.576;13.568;2022-12-18T13:54:32;-3.60;1.00
9410;DHT22;4744;52.576;13.568;2022-12-18T13:57:00;-3.60;1.00
9410;DHT22;4744;52.576;13.568;2022-12-18T13:59:35;-3.70;1.00
9410;DHT22;4744;52.576;13.568;2022-12-18T14:02:12;-3.70;1.00
9410;DHT22;4744;52.576;13.568;2022-12-18T14:04:39;-3.70;1.00
9410;DHT22;4744;52.576;13.568;2022-12-18T14:07:09;-3.70;1.00
9410;DHT22;4744;52.576;13.568;2022-12-18T14:09:42;-3.60;1.00
9410;DHT22;4744;52.576;13.568;2022-12-18T14:12:15;-3.60;1.00
9410;DHT22;4744;52.576;13.568;2022-12-18T14:15:01;-3.60;1.00
9410;DHT22;4744;52.576;13.568;2022-12-18T14:17:29;-3.60;1.00
9410;DHT22;4744;52.576;13.568;2022-12-18T14:19:58;-3.60;1.00
9410;DHT22;4744;52.576;13.568;2022-12-18T14:22:26;-3.60;1.00
9410;DHT22;4744;52.576;13.568;2022-12-18T14:25:17;-3.50;1.00
9410;DHT22;4744;52.576;13.568;2022-12-18T14:27:46;-3.60;1.00
9410;DHT22;4744;52.576;13.568;2022-12-18T14:30:27;-3.60;1.00
9410;DHT22;4744;52.576;13.568;2022-12-18T14:33:02;-3.70;1.00
9410;DHT22;4744;52.576;13.568;2022-12-18T14:35:29;-3.70;1.00
9410;DHT22;4744;52.576;13.568;2022-12-18T14:38:10;-3.70;1.00
9410;DHT22;4744;52.576;13.568;2022-12-18T14:40:38;-3.70;1.00
9410;DHT22;4744;52.576;13.568;2022-12-18T14:43:08;-3.70;1.00
9410;DHT22;4744;52.576;13.568;2022-12-18T14:45:39;-3.60;1.00
9410;DHT22;4744;52.576;13.568;2022-12-18T14:48:08;-3.60;1.00
9410;DHT22;4744;52.576;13.568;2022-12-18T14:50:36;-3.60;1.00
9410;DHT22;4744;52.576;13.568;2022-12-18T14:53:03;-3.50;1.00
9410;DHT22;4744;52.576;13.568;2022-12-18T14:55:35;-3.50;1.00
9410;DHT22;4744;52.576;13.568;2022-12-18T14:58:03;-3.60;1.00
9410;DHT22;4744;52.576;13.568;2022-12-18T15:00:31;-3.50;1.00
9410;DHT22;4744;52.576;13.568;2022-12-18T15:02:58;-3.60;1.00
9410;DHT22;4744;52.576;13.568;2022-12-18T15:05:28;-3.60;1.00
9410;DHT22;4744;52.576;13.568;2022-12-18T15:07:57;-3.60;1.00
9410;DHT22;4744;52.576;13.568;2022-12-18T15:10:26;-3.60;1.00
9410;DHT22;4744;52.576;13.568;2022-12-18T15:13:09;-3.60;1.00
9410;DHT22;4744;52.576;13.568;2022-12-18T15:15:45;-3.60;1.00
9410;DHT22;4744;52.576;13.568;2022-12-18T15:18:14;-3.60;1.00
9410;DHT22;4744;52.576;13.568;2022-12-18T15:20:44;-3.60;1.00
9410;DHT22;4744;52.576;13.568;2022-12-18T15:23:17;-3.60;1.00
9410;DHT22;4744;52.576;13.568;2022-12-18T15:25:48;-3.60;1.00
9410;DHT22;4744;52.576;13.568;2022-12-18T15:28:22;-3.60;1.00
9410;DHT22;4744;52.576;13.568;2022-12-18T15:31:01;-3.60;1.00
9410;DHT22;4744;52.576;13.568;2022-12-18T15:33:31;-3.60;1.00
9410;DHT22;4744;52.576;13.568;2022-12-18T15:35:59;-3.60;1.00
9410;DHT22;4744;52.576;13.568;2022-12-18T15:38:26;-3.60;1.00
9410;DHT22;4744;52.576;13.568;2022-12-18T15:40:54;-3.60;1.00
9410;DHT22;4744;52.576;13.568;2022-12-18T15:43:24;-3.60;1.00
9410;DHT22;4744;52.576;13.568;2022-12-18T15:45:59;-3.70;1.00
9410;DHT22;4744;52.576;13.568;2022-12-18T15:48:26;-3.70;1.00
9410;DHT22;4744;52.576;13.568;2022-12-18T15:50:55;-3.70;1.00
9410;DHT22;4744;52.576;13.568;2022-12-18T15:53:24;-3.70;1.00
9410;DHT22;4744;52.576;13.568;2022-12-18T15:55:52;-3.70;1.00
9410;DHT22;4744;52.576;13.568;2022-12-18T15:58:37;-3.70;1.00
9410;DHT22;4744;52.576;13.568;2022-12-18T16:01:05;-3.70;1.00
9410;DHT22;4744;52.576;13.568;2022-12-18T16:03:32;-3.60;1.00
9410;DHT22;4744;52.576;13.568;2022-12-18T16:05:59;-3.70;1.00
9410;DHT22;4744;52.576;13.568;2022-12-18T16:08:27;-3.60;1.00
9410;DHT22;4744;52.576;13.568;2022-12-18T16:10:55;-3.60;1.00
9410;DHT22;4744;52.576;13.568;2022-12-18T16:13:22;-3.70;1.00
9410;DHT22;4744;52.576;13.568;2022-12-18T16:15:51;-3.70;1.00
9410;DHT22;4744;52.576;13.568;2022-12-18T16:18:18;-3.70;1.00
9410;DHT22;4744;52.576;13.568;2022-12-18T16:20:45;-3.60;1.00
9410;DHT22;4744;52.576;13.568;2022-12-18T16:23:12;-3.70;1.00
9410;DHT22;4744;52.576;13.568;2022-12-18T16:25:39;-3.70;1.00
9410;DHT22;4744;52.576;13.568;2022-12-18T16:28:06;-3.60;1.00
9410;DHT22;4744;52.576;13.568;2022-12-18T16:30:34;-3.60;1.00
9410;DHT22;4744;52.576;13.568;2022-12-18T16:33:02;-3.60;1.00
9410;DHT22;4744;52.576;13.568;2022-12-18T16:35:29;-3.60;1.00